Airfield :
LOGIN :

Register | Disclaimer

   EN    FR    IT 

 










Legend :    VFR   Marginal VFR   IFR   Intensive IFR   Very Intensive IFR
Visi :
Ceiling :
>= 8 km
>= 3000ft
5 to 8 km
1000 to 3000 ft
1500m to 5 km
500 to 1000 ft
800 to 1500m
200 to 500 ft
< 800m
< 200 ft
Symbols :   Thunderstorms  Fog  Heavy snow  Heavy precipitations  Wind > 20 kt
SIGMETs :     Misc.  Thunderstorms  Icing  Turbulence  Mountain Waves  Volcanic Ashes






- Airport Elevation : 584 ft


LFPV - Villacoublay Vélizy

CURRENT METAR :
  • 200000Z AUTO 06001KT 9999 FEW003 BKN074 OVC090 11/11 Q1006 TEMPO 4500 -RA

EXPIRED METARs :
  • 192330Z AUTO 09002KT 8000 NSC 11/11 Q1006 TEMPO 4500 -RA
  • 192300Z AUTO 08001KT 6000 NSC 11/11 Q1006 TEMPO 4500 -RA
  • 192230Z AUTO 15002KT 7000 -RA FEW032/// OVC074/// ///TCU 11/11 Q1006 TEMPO 4500 -RA BECMG NSC
  • 192200Z AUTO 14003KT 5000 -RA BR FEW019/// BKN064/// OVC076/// ///TCU 12/11 Q1006 BECMG NSC
  • 192130Z AUTO 14004KT 4900 -RA BR FEW020/// BKN064/// OVC076/// ///TCU 12/11 Q1007 BECMG NSC

TAF TAF LFPV
Valid from the 19 at 21:00 until the 20 at 21:00 UTC


192000Z 1921/2021 VRB03KT CAVOK
TEMPO 1921/2004 4500 -RA
TEMPO 2004/2011 2500 RA BKN004
BECMG 2011/2013 03010KT BKN010 OVC015
BECMG 2019/2021 OVC005



MET'MAP, your aeronautical weather chart ! - Copyright ORBIFLY December 2007 - Disclaimer

ORBIFLY MET'MAP TEAM :

Programming & Development : Alexandra Zaïnal
Concept & Development : Baudouin d'Aumeries
Co-Development & Prog : Marc-Olivier Méhu
Technical & hardware support : Manuel Goepfert

Contact : metmap@orbifly.com




SOURCES & CREDITS :

   NOAA